sensor_id;sensor_type;location;lat;lon;timestamp;temperature;humidity
19168;DHT22;9716;53.114;18.040;2023-07-29T00:00:24;16.50;99.90
19168;DHT22;9716;53.114;18.040;2023-07-29T00:03:16;16.50;99.90
19168;DHT22;9716;53.114;18.040;2023-07-29T00:05:45;16.50;99.90
19168;DHT22;9716;53.114;18.040;2023-07-29T00:08:14;16.50;99.90
19168;DHT22;9716;53.114;18.040;2023-07-29T00:10:42;16.50;99.90
19168;DHT22;9716;53.114;18.040;2023-07-29T00:13:10;16.40;99.90
19168;DHT22;9716;53.114;18.040;2023-07-29T00:15:39;16.40;99.90
19168;DHT22;9716;53.114;18.040;2023-07-29T00:18:07;16.30;99.90
19168;DHT22;9716;53.114;18.040;2023-07-29T00:20:37;16.30;99.90
19168;DHT22;9716;53.114;18.040;2023-07-29T00:23:06;16.30;99.90
19168;DHT22;9716;53.114;18.040;2023-07-29T00:25:34;16.30;99.90
19168;DHT22;9716;53.114;18.040;2023-07-29T00:28:03;16.20;99.90
19168;DHT22;9716;53.114;18.040;2023-07-29T00:30:32;16.20;99.90
19168;DHT22;9716;53.114;18.040;2023-07-29T00:33:00;16.10;99.90
19168;DHT22;9716;53.114;18.040;2023-07-29T00:35:29;16.10;99.90
19168;DHT22;9716;53.114;18.040;2023-07-29T00:37:59;16.10;99.90
19168;DHT22;9716;53.114;18.040;2023-07-29T00:40:28;16.10;99.90
19168;DHT22;9716;53.114;18.040;2023-07-29T00:42:57;16.00;99.90
19168;DHT22;9716;53.114;18.040;2023-07-29T00:45:27;16.00;99.90
19168;DHT22;9716;53.114;18.040;2023-07-29T00:47:57;15.90;99.90
19168;DHT22;9716;53.114;18.040;2023-07-29T00:50:26;16.00;99.90
19168;DHT22;9716;53.114;18.040;2023-07-29T00:52:56;16.00;99.90
19168;DHT22;9716;53.114;18.040;2023-07-29T00:55:26;15.90;99.90
19168;DHT22;9716;53.114;18.040;2023-07-29T00:57:56;15.90;99.90
19168;DHT22;9716;53.114;18.040;2023-07-29T01:00:24;15.80;99.90
19168;DHT22;9716;53.114;18.040;2023-07-29T01:02:53;15.80;99.90
19168;DHT22;9716;53.114;18.040;2023-07-29T01:05:23;15.80;99.90
19168;DHT22;9716;53.114;18.040;2023-07-29T01:07:59;15.70;99.90
19168;DHT22;9716;53.114;18.040;2023-07-29T01:10:36;15.80;99.90
19168;DHT22;9716;53.114;18.040;2023-07-29T01:13:16;15.70;99.90
19168;DHT22;9716;53.114;18.040;2023-07-29T01:15:51;15.70;99.90
19168;DHT22;9716;53.114;18.040;2023-07-29T01:18:23;15.70;99.90
19168;DHT22;9716;53.114;18.040;2023-07-29T01:20:54;15.60;99.90
19168;DHT22;9716;53.114;18.040;2023-07-29T01:23:29;15.60;99.90
19168;DHT22;9716;53.114;18.040;2023-07-29T01:25:57;15.60;99.90
19168;DHT22;9716;53.114;18.040;2023-07-29T01:28:27;15.50;99.90
19168;DHT22;9716;53.114;18.040;2023-07-29T01:30:58;15.50;99.90
19168;DHT22;9716;53.114;18.040;2023-07-29T01:33:33;15.50;99.90
19168;DHT22;9716;53.114;18.040;2023-07-29T01:36:07;15.40;99.90
19168;DHT22;9716;53.114;18.040;2023-07-29T01:38:41;15.50;99.90
19168;DHT22;9716;53.114;18.040;2023-07-29T01:41:12;15.50;99.90
19168;DHT22;9716;53.114;18.040;2023-07-29T01:43:41;15.40;99.90
19168;DHT22;9716;53.114;18.040;2023-07-29T01:46:11;15.40;99.90
19168;DHT22;9716;53.114;18.040;2023-07-29T01:48:40;15.40;99.90
19168;DHT22;9716;53.114;18.040;2023-07-29T01:51:10;15.30;99.90
19168;DHT22;9716;53.114;18.040;2023-07-29T01:53:41;15.30;99.90
19168;DHT22;9716;53.114;18.040;2023-07-29T01:56:09;15.30;99.90
19168;DHT22;9716;53.114;18.040;2023-07-29T01:58:37;15.30;99.90
19168;DHT22;9716;53.114;18.040;2023-07-29T02:01:06;15.20;99.90
19168;DHT22;9716;53.114;18.040;2023-07-29T02:03:34;15.20;99.90
19168;DHT22;9716;53.114;18.040;2023-07-29T02:06:03;15.10;99.90
19168;DHT22;9716;53.114;18.040;2023-07-29T02:08:31;15.10;99.90
19168;DHT22;9716;53.114;18.040;2023-07-29T02:11:01;15.10;99.90
19168;DHT22;9716;53.114;18.040;2023-07-29T02:13:30;15.10;99.90
19168;DHT22;9716;53.114;18.040;2023-07-29T02:15:58;15.10;99.90
19168;DHT22;9716;53.114;18.040;2023-07-29T02:18:27;15.00;99.90
19168;DHT22;9716;53.114;18.040;2023-07-29T02:20:55;15.00;99.90
19168;DHT22;9716;53.114;18.040;2023-07-29T02:23:23;15.00;99.90
19168;DHT22;9716;53.114;18.040;2023-07-29T02:25:52;15.00;99.90
19168;DHT22;9716;53.114;18.040;2023-07-29T02:28:22;14.90;99.90
19168;DHT22;9716;53.114;18.040;2023-07-29T02:31:09;14.90;99.90
19168;DHT22;9716;53.114;18.040;2023-07-29T02:33:38;14.90;99.90
19168;DHT22;9716;53.114;18.040;2023-07-29T02:36:06;14.80;99.90
19168;DHT22;9716;53.114;18.040;2023-07-29T02:38:35;14.80;99.90
19168;DHT22;9716;53.114;18.040;2023-07-29T02:41:03;14.80;99.90
19168;DHT22;9716;53.114;18.040;2023-07-29T02:43:33;14.70;99.90
19168;DHT22;9716;53.114;18.040;2023-07-29T02:46:02;14.70;99.90
19168;DHT22;9716;53.114;18.040;2023-07-29T02:48:30;14.70;99.90
19168;DHT22;9716;53.114;18.040;2023-07-29T02:50:59;14.70;99.90
19168;DHT22;9716;53.114;18.040;2023-07-29T02:53:27;14.70;99.90
19168;DHT22;9716;53.114;18.040;2023-07-29T02:55:56;14.70;99.90
19168;DHT22;9716;53.114;18.040;2023-07-29T02:58:24;14.70;99.90
19168;DHT22;9716;53.114;18.040;2023-07-29T03:01:00;14.70;99.90
19168;DHT22;9716;53.114;18.040;2023-07-29T03:03:29;14.70;99.90
19168;DHT22;9716;53.114;18.040;2023-07-29T03:05:59;14.70;99.90
19168;DHT22;9716;53.114;18.040;2023-07-29T03:08:28;14.70;99.90
19168;DHT22;9716;53.114;18.040;2023-07-29T03:10:57;14.70;99.90
19168;DHT22;9716;53.114;18.040;2023-07-29T03:13:26;14.70;99.90
19168;DHT22;9716;53.114;18.040;2023-07-29T03:16:04;14.70;99.90
19168;DHT22;9716;53.114;18.040;2023-07-29T03:18:33;14.70;99.90
19168;DHT22;9716;53.114;18.040;2023-07-29T03:21:02;14.70;99.90
19168;DHT22;9716;53.114;18.040;2023-07-29T03:23:32;14.80;99.90
19168;DHT22;9716;53.114;18.040;2023-07-29T03:26:02;14.80;99.90
19168;DHT22;9716;53.114;18.040;2023-07-29T03:28:38;14.80;99.90
19168;DHT22;9716;53.114;18.040;2023-07-29T03:31:08;14.90;99.90
19168;DHT22;9716;53.114;18.040;2023-07-29T03:33:37;14.90;99.90
19168;DHT22;9716;53.114;18.040;2023-07-29T03:36:05;15.00;99.90
19168;DHT22;9716;53.114;18.040;2023-07-29T03:38:34;15.10;99.90
19168;DHT22;9716;53.114;18.040;2023-07-29T03:41:07;15.20;99.90
19168;DHT22;9716;53.114;18.040;2023-07-29T03:43:37;15.30;99.90
19168;DHT22;9716;53.114;18.040;2023-07-29T03:46:06;15.30;99.90
19168;DHT22;9716;53.114;18.040;2023-07-29T03:48:38;15.50;99.90
19168;DHT22;9716;53.114;18.040;2023-07-29T03:51:07;15.70;99.90
19168;DHT22;9716;53.114;18.040;2023-07-29T03:53:35;15.80;99.90
19168;DHT22;9716;53.114;18.040;2023-07-29T03:56:04;16.00;99.90
19168;DHT22;9716;53.114;18.040;2023-07-29T03:58:33;16.20;99.90
19168;DHT22;9716;53.114;18.040;2023-07-29T04:01:01;16.40;99.90
19168;DHT22;9716;53.114;18.040;2023-07-29T04:03:32;16.60;99.90
19168;DHT22;9716;53.114;18.040;2023-07-29T04:06:01;16.90;99.90
19168;DHT22;9716;53.114;18.040;2023-07-29T04:08:30;17.20;99.90
19168;DHT22;9716;53.114;18.040;2023-07-29T04:10:58;17.50;99.90
19168;DHT22;9716;53.114;18.040;2023-07-29T04:13:27;17.70;99.90
19168;DHT22;9716;53.114;18.040;2023-07-29T04:15:55;18.10;99.90
19168;DHT22;9716;53.114;18.040;2023-07-29T04:18:24;18.40;99.90
19168;DHT22;9716;53.114;18.040;2023-07-29T04:20:53;18.70;99.90
19168;DHT22;9716;53.114;18.040;2023-07-29T04:23:22;18.90;99.90
19168;DHT22;9716;53.114;18.040;2023-07-29T04:25:50;19.20;99.90
19168;DHT22;9716;53.114;18.040;2023-07-29T04:28:19;19.40;99.90
19168;DHT22;9716;53.114;18.040;2023-07-29T04:30:47;19.60;99.90
19168;DHT22;9716;53.114;18.040;2023-07-29T04:33:16;19.70;99.90
19168;DHT22;9716;53.114;18.040;2023-07-29T04:35:45;19.90;99.90
19168;DHT22;9716;53.114;18.040;2023-07-29T04:38:15;20.10;99.90
19168;DHT22;9716;53.114;18.040;2023-07-29T04:40:43;20.30;99.90
19168;DHT22;9716;53.114;18.040;2023-07-29T04:43:12;20.50;99.90
19168;DHT22;9716;53.114;18.040;2023-07-29T04:45:42;20.70;99.90
19168;DHT22;9716;53.114;18.040;2023-07-29T04:48:11;20.90;99.90
19168;DHT22;9716;53.114;18.040;2023-07-29T04:50:40;21.00;99.90
19168;DHT22;9716;53.114;18.040;2023-07-29T04:53:08;21.10;99.90
19168;DHT22;9716;53.114;18.040;2023-07-29T04:55:38;21.20;99.90
19168;DHT22;9716;53.114;18.040;2023-07-29T04:58:09;21.40;99.90
19168;DHT22;9716;53.114;18.040;2023-07-29T05:00:37;21.70;99.90
19168;DHT22;9716;53.114;18.040;2023-07-29T05:03:06;21.90;99.90
19168;DHT22;9716;53.114;18.040;2023-07-29T05:05:34;22.30;99.90
19168;DHT22;9716;53.114;18.040;2023-07-29T05:08:03;22.60;99.90
19168;DHT22;9716;53.114;18.040;2023-07-29T05:10:32;22.90;99.90
19168;DHT22;9716;53.114;18.040;2023-07-29T05:13:02;23.20;99.90
19168;DHT22;9716;53.114;18.040;2023-07-29T05:15:31;23.50;99.90
19168;DHT22;9716;53.114;18.040;2023-07-29T05:17:59;23.70;99.90
19168;DHT22;9716;53.114;18.040;2023-07-29T05:20:27;24.00;99.90
19168;DHT22;9716;53.114;18.040;2023-07-29T05:22:56;24.20;99.90
19168;DHT22;9716;53.114;18.040;2023-07-29T05:25:25;24.50;99.90
19168;DHT22;9716;53.114;18.040;2023-07-29T05:27:53;24.80;99.90
19168;DHT22;9716;53.114;18.040;2023-07-29T05:30:23;25.00;99.90
19168;DHT22;9716;53.114;18.040;2023-07-29T05:32:54;25.20;99.90
19168;DHT22;9716;53.114;18.040;2023-07-29T05:35:23;25.30;99.90
19168;DHT22;9716;53.114;18.040;2023-07-29T05:37:51;25.50;99.90
19168;DHT22;9716;53.114;18.040;2023-07-29T05:40:20;25.60;99.90
19168;DHT22;9716;53.114;18.040;2023-07-29T05:42:48;25.80;99.90
19168;DHT22;9716;53.114;18.040;2023-07-29T05:45:17;26.00;99.90
19168;DHT22;9716;53.114;18.040;2023-07-29T05:47:47;26.20;99.90
19168;DHT22;9716;53.114;18.040;2023-07-29T05:50:16;26.40;99.90
19168;DHT22;9716;53.114;18.040;2023-07-29T05:52:45;26.60;99.90
19168;DHT22;9716;53.114;18.040;2023-07-29T05:55:13;26.70;99.90
19168;DHT22;9716;53.114;18.040;2023-07-29T05:57:42;26.90;99.90
19168;DHT22;9716;53.114;18.040;2023-07-29T06:00:11;27.10;99.90
19168;DHT22;9716;53.114;18.040;2023-07-29T06:02:40;27.30;99.90
19168;DHT22;9716;53.114;18.040;2023-07-29T06:05:10;27.50;99.90
19168;DHT22;9716;53.114;18.040;2023-07-29T06:07:39;27.70;99.90
19168;DHT22;9716;53.114;18.040;2023-07-29T06:10:13;27.80;99.80
19168;DHT22;9716;53.114;18.040;2023-07-29T06:12:45;28.00;99.20
19168;DHT22;9716;53.114;18.040;2023-07-29T06:15:13;28.10;98.70
19168;DHT22;9716;53.114;18.040;2023-07-29T06:17:42;28.20;98.20
19168;DHT22;9716;53.114;18.040;2023-07-29T06:20:12;28.30;97.80
19168;DHT22;9716;53.114;18.040;2023-07-29T06:22:41;28.40;97.40
19168;DHT22;9716;53.114;18.040;2023-07-29T06:25:10;28.50;97.10
19168;DHT22;9716;53.114;18.040;2023-07-29T06:27:38;28.60;96.60
19168;DHT22;9716;53.114;18.040;2023-07-29T06:30:07;28.80;96.30
19168;DHT22;9716;53.114;18.040;2023-07-29T06:32:36;29.00;95.80
19168;DHT22;9716;53.114;18.040;2023-07-29T06:35:05;29.20;95.40
19168;DHT22;9716;53.114;18.040;2023-07-29T06:37:35;29.40;94.70
19168;DHT22;9716;53.114;18.040;2023-07-29T06:40:05;29.50;94.10
19168;DHT22;9716;53.114;18.040;2023-07-29T06:42:33;29.60;93.80
19168;DHT22;9716;53.114;18.040;2023-07-29T06:45:03;29.70;93.50
19168;DHT22;9716;53.114;18.040;2023-07-29T06:47:32;30.00;93.00
19168;DHT22;9716;53.114;18.040;2023-07-29T06:50:00;30.20;92.60
19168;DHT22;9716;53.114;18.040;2023-07-29T06:52:29;30.20;92.10
19168;DHT22;9716;53.114;18.040;2023-07-29T06:54:59;30.30;91.90
19168;DHT22;9716;53.114;18.040;2023-07-29T06:57:27;30.40;91.70
19168;DHT22;9716;53.114;18.040;2023-07-29T06:59:56;30.60;91.40
19168;DHT22;9716;53.114;18.040;2023-07-29T07:02:25;30.70;91.10
19168;DHT22;9716;53.114;18.040;2023-07-29T07:04:53;30.90;90.80
19168;DHT22;9716;53.114;18.040;2023-07-29T07:07:22;31.00;90.40
19168;DHT22;9716;53.114;18.040;2023-07-29T07:09:50;31.10;90.00
19168;DHT22;9716;53.114;18.040;2023-07-29T07:12:20;31.10;89.50
19168;DHT22;9716;53.114;18.040;2023-07-29T07:14:49;31.20;89.10
19168;DHT22;9716;53.114;18.040;2023-07-29T07:17:17;31.20;88.50
19168;DHT22;9716;53.114;18.040;2023-07-29T07:19:46;31.40;87.70
19168;DHT22;9716;53.114;18.040;2023-07-29T07:22:15;31.60;87.90
19168;DHT22;9716;53.114;18.040;2023-07-29T07:24:44;31.80;86.60
19168;DHT22;9716;53.114;18.040;2023-07-29T07:27:12;31.90;85.90
19168;DHT22;9716;53.114;18.040;2023-07-29T07:29:42;32.10;85.10
19168;DHT22;9716;53.114;18.040;2023-07-29T07:32:11;32.30;84.10
19168;DHT22;9716;53.114;18.040;2023-07-29T07:34:39;32.40;83.00
19168;DHT22;9716;53.114;18.040;2023-07-29T07:37:08;32.40;82.10
19168;DHT22;9716;53.114;18.040;2023-07-29T07:39:37;32.40;82.00
19168;DHT22;9716;53.114;18.040;2023-07-29T07:42:06;32.50;81.60
19168;DHT22;9716;53.114;18.040;2023-07-29T07:44:34;32.60;81.20
19168;DHT22;9716;53.114;18.040;2023-07-29T07:47:04;32.60;80.80
19168;DHT22;9716;53.114;18.040;2023-07-29T07:49:33;32.70;80.80
19168;DHT22;9716;53.114;18.040;2023-07-29T07:52:01;32.80;80.00
19168;DHT22;9716;53.114;18.040;2023-07-29T07:54:30;32.90;79.30
19168;DHT22;9716;53.114;18.040;2023-07-29T07:56:58;33.10;78.60
19168;DHT22;9716;53.114;18.040;2023-07-29T07:59:27;33.40;78.00
19168;DHT22;9716;53.114;18.040;2023-07-29T08:01:56;33.50;77.00
19168;DHT22;9716;53.114;18.040;2023-07-29T08:04:26;33.70;76.70
19168;DHT22;9716;53.114;18.040;2023-07-29T08:06:54;33.60;76.60
19168;DHT22;9716;53.114;18.040;2023-07-29T08:09:22;33.60;76.40
19168;DHT22;9716;53.114;18.040;2023-07-29T08:11:51;33.70;75.60
19168;DHT22;9716;53.114;18.040;2023-07-29T08:14:19;33.80;75.40
19168;DHT22;9716;53.114;18.040;2023-07-29T08:16:48;33.70;75.30
19168;DHT22;9716;53.114;18.040;2023-07-29T08:19:16;33.70;75.00
19168;DHT22;9716;53.114;18.040;2023-07-29T08:21:50;33.80;74.70
19168;DHT22;9716;53.114;18.040;2023-07-29T08:24:18;33.80;74.60
19168;DHT22;9716;53.114;18.040;2023-07-29T08:26:47;33.80;74.50
19168;DHT22;9716;53.114;18.040;2023-07-29T08:29:16;33.80;74.60
19168;DHT22;9716;53.114;18.040;2023-07-29T08:31:44;33.80;74.30
19168;DHT22;9716;53.114;18.040;2023-07-29T08:34:12;33.80;74.00
19168;DHT22;9716;53.114;18.040;2023-07-29T08:36:41;33.90;73.90
19168;DHT22;9716;53.114;18.040;2023-07-29T08:39:11;34.00;73.80
19168;DHT22;9716;53.114;18.040;2023-07-29T08:41:45;34.10;72.90
19168;DHT22;9716;53.114;18.040;2023-07-29T08:44:22;34.20;71.50
19168;DHT22;9716;53.114;18.040;2023-07-29T08:46:51;34.20;71.90
19168;DHT22;9716;53.114;18.040;2023-07-29T08:49:21;34.10;71.90
19168;DHT22;9716;53.114;18.040;2023-07-29T08:51:53;34.10;72.00
19168;DHT22;9716;53.114;18.040;2023-07-29T08:54:23;34.10;71.60
19168;DHT22;9716;53.114;18.040;2023-07-29T08:56:52;34.00;72.10
19168;DHT22;9716;53.114;18.040;2023-07-29T08:59:21;33.80;72.10
19168;DHT22;9716;53.114;18.040;2023-07-29T09:01:50;33.80;71.20
19168;DHT22;9716;53.114;18.040;2023-07-29T09:04:22;33.70;71.60
19168;DHT22;9716;53.114;18.040;2023-07-29T09:06:53;33.70;71.40
19168;DHT22;9716;53.114;18.040;2023-07-29T09:09:25;33.60;72.00
19168;DHT22;9716;53.114;18.040;2023-07-29T09:11:57;33.50;71.50
19168;DHT22;9716;53.114;18.040;2023-07-29T09:14:26;33.20;72.00
19168;DHT22;9716;53.114;18.040;2023-07-29T09:16:59;32.90;72.80
19168;DHT22;9716;53.114;18.040;2023-07-29T09:19:47;32.50;73.90
19168;DHT22;9716;53.114;18.040;2023-07-29T09:22:19;32.30;74.70
19168;DHT22;9716;53.114;18.040;2023-07-29T09:24:50;32.10;74.50
19168;DHT22;9716;53.114;18.040;2023-07-29T09:27:25;32.20;75.30
19168;DHT22;9716;53.114;18.040;2023-07-29T09:29:55;32.10;75.00
19168;DHT22;9716;53.114;18.040;2023-07-29T09:32:25;32.00;75.30
19168;DHT22;9716;53.114;18.040;2023-07-29T09:34:54;31.90;75.80
19168;DHT22;9716;53.114;18.040;2023-07-29T09:37:23;31.90;76.30
19168;DHT22;9716;53.114;18.040;2023-07-29T09:39:53;31.90;75.30
19168;DHT22;9716;53.114;18.040;2023-07-29T09:42:23;32.00;75.60
19168;DHT22;9716;53.114;18.040;2023-07-29T09:44:51;32.10;76.10
19168;DHT22;9716;53.114;18.040;2023-07-29T09:47:20;32.10;75.10
19168;DHT22;9716;53.114;18.040;2023-07-29T09:49:50;31.90;75.60
19168;DHT22;9716;53.114;18.040;2023-07-29T09:52:20;31.80;75.90
19168;DHT22;9716;53.114;18.040;2023-07-29T09:54:50;31.50;76.00
19168;DHT22;9716;53.114;18.040;2023-07-29T09:57:21;31.50;75.20
19168;DHT22;9716;53.114;18.040;2023-07-29T09:59:55;31.40;76.60
19168;DHT22;9716;53.114;18.040;2023-07-29T10:02:24;31.40;77.60
19168;DHT22;9716;53.114;18.040;2023-07-29T10:04:56;31.30;77.10
19168;DHT22;9716;53.114;18.040;2023-07-29T10:07:26;31.30;76.90
19168;DHT22;9716;53.114;18.040;2023-07-29T10:09:56;31.30;77.50
19168;DHT22;9716;53.114;18.040;2023-07-29T10:12:27;31.30;77.10
19168;DHT22;9716;53.114;18.040;2023-07-29T10:14:59;31.40;77.00
19168;DHT22;9716;53.114;18.040;2023-07-29T10:17:28;31.50;76.10
19168;DHT22;9716;53.114;18.040;2023-07-29T10:19:58;31.50;75.20
19168;DHT22;9716;53.114;18.040;2023-07-29T10:22:29;31.50;75.90
19168;DHT22;9716;53.114;18.040;2023-07-29T10:25:03;31.40;76.20
19168;DHT22;9716;53.114;18.040;2023-07-29T10:27:42;31.40;75.30
19168;DHT22;9716;53.114;18.040;2023-07-29T10:30:12;31.40;75.60
19168;DHT22;9716;53.114;18.040;2023-07-29T10:32:42;31.50;75.80
19168;DHT22;9716;53.114;18.040;2023-07-29T10:35:12;31.70;76.30
19168;DHT22;9716;53.114;18.040;2023-07-29T10:37:41;32.00;75.60
19168;DHT22;9716;53.114;18.040;2023-07-29T10:40:11;32.20;75.90
19168;DHT22;9716;53.114;18.040;2023-07-29T10:42:59;32.50;75.70
19168;DHT22;9716;53.114;18.040;2023-07-29T10:45:37;32.70;74.30
19168;DHT22;9716;53.114;18.040;2023-07-29T10:48:09;32.80;74.90
19168;DHT22;9716;53.114;18.040;2023-07-29T10:50:38;32.90;75.20
19168;DHT22;9716;53.114;18.040;2023-07-29T10:53:07;33.10;74.80
19168;DHT22;9716;53.114;18.040;2023-07-29T10:55:36;33.30;74.40
19168;DHT22;9716;53.114;18.040;2023-07-29T10:58:08;33.40;73.80
19168;DHT22;9716;53.114;18.040;2023-07-29T11:00:35;33.50;74.20
19168;DHT22;9716;53.114;18.040;2023-07-29T11:03:06;33.50;74.00
19168;DHT22;9716;53.114;18.040;2023-07-29T11:05:43;33.40;74.10
19168;DHT22;9716;53.114;18.040;2023-07-29T11:08:17;33.30;73.80
19168;DHT22;9716;53.114;18.040;2023-07-29T11:10:58;33.30;73.50
19168;DHT22;9716;53.114;18.040;2023-07-29T11:13:29;33.10;74.30
19168;DHT22;9716;53.114;18.040;2023-07-29T11:15:59;32.90;74.80
19168;DHT22;9716;53.114;18.040;2023-07-29T11:18:30;32.70;75.20
19168;DHT22;9716;53.114;18.040;2023-07-29T11:21:00;32.60;75.20
19168;DHT22;9716;53.114;18.040;2023-07-29T11:23:31;32.50;75.40
19168;DHT22;9716;53.114;18.040;2023-07-29T11:26:00;32.60;73.90
19168;DHT22;9716;53.114;18.040;2023-07-29T11:28:30;32.50;73.60
19168;DHT22;9716;53.114;18.040;2023-07-29T11:30:59;32.50;74.10
19168;DHT22;9716;53.114;18.040;2023-07-29T11:33:28;32.40;74.00
19168;DHT22;9716;53.114;18.040;2023-07-29T11:35:57;32.40;73.10
19168;DHT22;9716;53.114;18.040;2023-07-29T11:38:26;32.30;73.40
19168;DHT22;9716;53.114;18.040;2023-07-29T11:40:59;32.30;73.50
19168;DHT22;9716;53.114;18.040;2023-07-29T11:43:34;32.30;73.70
19168;DHT22;9716;53.114;18.040;2023-07-29T11:46:03;32.40;73.80
19168;DHT22;9716;53.114;18.040;2023-07-29T11:48:33;32.40;74.10
19168;DHT22;9716;53.114;18.040;2023-07-29T11:51:02;32.40;74.30
19168;DHT22;9716;53.114;18.040;2023-07-29T11:53:31;32.50;73.90
19168;DHT22;9716;53.114;18.040;2023-07-29T11:56:01;32.60;74.30
19168;DHT22;9716;53.114;18.040;2023-07-29T11:58:33;32.60;74.40
19168;DHT22;9716;53.114;18.040;2023-07-29T12:01:03;32.70;74.90
19168;DHT22;9716;53.114;18.040;2023-07-29T12:03:32;32.70;74.50
19168;DHT22;9716;53.114;18.040;2023-07-29T12:06:00;32.70;73.90
19168;DHT22;9716;53.114;18.040;2023-07-29T12:08:29;32.60;73.50
19168;DHT22;9716;53.114;18.040;2023-07-29T12:10:58;32.50;73.70
19168;DHT22;9716;53.114;18.040;2023-07-29T12:13:26;32.40;74.30
19168;DHT22;9716;53.114;18.040;2023-07-29T12:16:03;32.40;74.50
19168;DHT22;9716;53.114;18.040;2023-07-29T12:18:32;32.30;74.80
19168;DHT22;9716;53.114;18.040;2023-07-29T12:21:04;32.30;75.10
19168;DHT22;9716;53.114;18.040;2023-07-29T12:23:32;32.20;75.10
19168;DHT22;9716;53.114;18.040;2023-07-29T12:26:01;32.10;75.30
19168;DHT22;9716;53.114;18.040;2023-07-29T12:28:30;32.10;75.50
19168;DHT22;9716;53.114;18.040;2023-07-29T12:30:59;31.90;75.50
19168;DHT22;9716;53.114;18.040;2023-07-29T12:33:33;32.00;75.90
19168;DHT22;9716;53.114;18.040;2023-07-29T12:36:02;31.90;75.80
19168;DHT22;9716;53.114;18.040;2023-07-29T12:38:31;31.80;76.20
19168;DHT22;9716;53.114;18.040;2023-07-29T12:40:59;31.70;76.10
19168;DHT22;9716;53.114;18.040;2023-07-29T12:43:28;31.70;76.50
19168;DHT22;9716;53.114;18.040;2023-07-29T12:45:58;31.80;76.40
19168;DHT22;9716;53.114;18.040;2023-07-29T12:48:27;31.80;76.20
19168;DHT22;9716;53.114;18.040;2023-07-29T12:50:57;31.90;76.40
19168;DHT22;9716;53.114;18.040;2023-07-29T12:53:25;31.90;76.20
19168;DHT22;9716;53.114;18.040;2023-07-29T12:55:54;31.80;75.60
19168;DHT22;9716;53.114;18.040;2023-07-29T12:58:22;31.80;76.00
19168;DHT22;9716;53.114;18.040;2023-07-29T13:00:51;31.90;76.20
19168;DHT22;9716;53.114;18.040;2023-07-29T13:03:20;31.90;76.00
19168;DHT22;9716;53.114;18.040;2023-07-29T13:05:48;31.90;75.80
19168;DHT22;9716;53.114;18.040;2023-07-29T13:08:18;32.00;75.70
19168;DHT22;9716;53.114;18.040;2023-07-29T13:10:47;31.90;75.50
19168;DHT22;9716;53.114;18.040;2023-07-29T13:13:15;31.90;75.20
19168;DHT22;9716;53.114;18.040;2023-07-29T13:15:44;31.90;75.50
19168;DHT22;9716;53.114;18.040;2023-07-29T13:18:12;31.70;76.00
19168;DHT22;9716;53.114;18.040;2023-07-29T13:20:41;31.70;76.30
19168;DHT22;9716;53.114;18.040;2023-07-29T13:23:10;31.50;76.10
19168;DHT22;9716;53.114;18.040;2023-07-29T13:25:40;31.40;76.50
19168;DHT22;9716;53.114;18.040;2023-07-29T13:28:10;31.40;76.70
19168;DHT22;9716;53.114;18.040;2023-07-29T13:30:40;31.30;76.60
19168;DHT22;9716;53.114;18.040;2023-07-29T13:33:09;31.30;76.60
19168;DHT22;9716;53.114;18.040;2023-07-29T13:35:37;31.20;76.70
19168;DHT22;9716;53.114;18.040;2023-07-29T13:38:06;31.20;76.60
19168;DHT22;9716;53.114;18.040;2023-07-29T13:40:34;31.20;76.80
19168;DHT22;9716;53.114;18.040;2023-07-29T13:43:08;31.10;77.20
19168;DHT22;9716;53.114;18.040;2023-07-29T13:45:37;31.00;77.30
19168;DHT22;9716;53.114;18.040;2023-07-29T13:48:07;31.00;77.30
19168;DHT22;9716;53.114;18.040;2023-07-29T13:50:36;31.00;77.50
19168;DHT22;9716;53.114;18.040;2023-07-29T13:53:04;30.90;77.30
19168;DHT22;9716;53.114;18.040;2023-07-29T13:55:33;30.90;77.50
19168;DHT22;9716;53.114;18.040;2023-07-29T13:58:01;31.00;77.20
19168;DHT22;9716;53.114;18.040;2023-07-29T14:00:31;31.10;77.00
19168;DHT22;9716;53.114;18.040;2023-07-29T14:03:00;31.10;77.20
19168;DHT22;9716;53.114;18.040;2023-07-29T14:05:29;31.20;77.20
19168;DHT22;9716;53.114;18.040;2023-07-29T14:07:57;31.20;76.80
19168;DHT22;9716;53.114;18.040;2023-07-29T14:10:26;31.20;76.60
19168;DHT22;9716;53.114;18.040;2023-07-29T14:12:54;31.20;76.60
19168;DHT22;9716;53.114;18.040;2023-07-29T14:15:23;31.30;76.60
19168;DHT22;9716;53.114;18.040;2023-07-29T14:17:53;31.30;76.60
19168;DHT22;9716;53.114;18.040;2023-07-29T14:20:21;31.30;76.70
19168;DHT22;9716;53.114;18.040;2023-07-29T14:22:50;31.30;76.90
19168;DHT22;9716;53.114;18.040;2023-07-29T14:25:18;31.30;76.90
19168;DHT22;9716;53.114;18.040;2023-07-29T14:27:47;31.30;76.00
19168;DHT22;9716;53.114;18.040;2023-07-29T14:30:15;31.30;75.50
19168;DHT22;9716;53.114;18.040;2023-07-29T14:32:44;31.20;75.90
19168;DHT22;9716;53.114;18.040;2023-07-29T14:35:13;31.10;76.10
19168;DHT22;9716;53.114;18.040;2023-07-29T14:37:42;31.00;76.60
19168;DHT22;9716;53.114;18.040;2023-07-29T14:40:10;30.90;77.30
19168;DHT22;9716;53.114;18.040;2023-07-29T14:42:39;30.90;77.80
19168;DHT22;9716;53.114;18.040;2023-07-29T14:45:08;30.80;77.90
19168;DHT22;9716;53.114;18.040;2023-07-29T14:47:36;30.80;77.90
19168;DHT22;9716;53.114;18.040;2023-07-29T14:50:05;30.70;78.10
19168;DHT22;9716;53.114;18.040;2023-07-29T14:52:35;30.60;78.20
19168;DHT22;9716;53.114;18.040;2023-07-29T14:55:05;30.50;78.40
19168;DHT22;9716;53.114;18.040;2023-07-29T14:57:34;30.40;79.00
19168;DHT22;9716;53.114;18.040;2023-07-29T15:00:04;30.30;79.20
19168;DHT22;9716;53.114;18.040;2023-07-29T15:02:33;30.20;79.60
19168;DHT22;9716;53.114;18.040;2023-07-29T15:05:02;30.20;79.70
19168;DHT22;9716;53.114;18.040;2023-07-29T15:07:31;30.20;79.70
19168;DHT22;9716;53.114;18.040;2023-07-29T15:10:00;30.20;79.80
19168;DHT22;9716;53.114;18.040;2023-07-29T15:12:29;30.20;79.70
19168;DHT22;9716;53.114;18.040;2023-07-29T15:14:58;30.20;79.60
19168;DHT22;9716;53.114;18.040;2023-07-29T15:17:26;30.10;79.90
19168;DHT22;9716;53.114;18.040;2023-07-29T15:19:55;30.00;79.80
19168;DHT22;9716;53.114;18.040;2023-07-29T15:22:23;29.90;80.30
19168;DHT22;9716;53.114;18.040;2023-07-29T15:24:52;29.80;80.50
19168;DHT22;9716;53.114;18.040;2023-07-29T15:27:22;29.70;80.70
19168;DHT22;9716;53.114;18.040;2023-07-29T15:29:50;29.50;81.10
19168;DHT22;9716;53.114;18.040;2023-07-29T15:32:19;29.40;81.40
19168;DHT22;9716;53.114;18.040;2023-07-29T15:34:47;29.20;81.70
19168;DHT22;9716;53.114;18.040;2023-07-29T15:37:16;29.10;82.10
19168;DHT22;9716;53.114;18.040;2023-07-29T15:39:44;29.00;82.40
19168;DHT22;9716;53.114;18.040;2023-07-29T15:42:13;29.00;82.70
19168;DHT22;9716;53.114;18.040;2023-07-29T15:44:43;28.80;82.90